Terminal Aerodrome Forecast
Issued by NWS

Home | Current Version | Previous Version | Text Only | Print | Product List | Glossary On
Versions: 1 2 3 4 5 6 7 8 9 10 11 12 13 14 15 16 17 18 19 20 21 22 23 24 25 26 27 28 29 30 31 32 33 34
000
FTUS46 KPQR 280528
TAFONP
TAF
KONP 280528Z 2806/2906 19005KT 6SM -DZ BR BKN009 OVC020
     FM281000 14004KT 6SM BR SCT009 OVC025
     FM281800 19006KT 4SM BR SCT015 OVC035
     FM282300 14006KT P6SM SCT010 OVC040=

USA.gov is the U.S. government's official web portal to all federal, state and local government web resources and services.